Time;durP1;ratioP1;P1;durP2;ratioP2;P2;SDS_P1;SDS_P2;PMS_P1;PMS_P2;Temp;Humidity;BMP_temperature;BMP_pressure;BME280_temperature;BME280_humidity;BME280_pressure;Samples;Min_cycle;Max_cycle;Signal;HPM_P1;HPM_P2
2023/04/06 00:00:23;;;;;;;;;;;;;;;28.62;22.52;100406.94;5098834;28;1974;-22
2023/04/06 00:02:49;;;;;;;;;;;;;;;28.40;23.37;100404.34;5098930;28;1070;-24
2023/04/06 00:05:14;;;;;;;;;;;;;;;28.14;23.59;100408.53;5098346;28;1130;-27
2023/04/06 00:07:40;;;;;;;;;;;;;;;28.13;23.73;100404.19;5098204;28;1075;-26
2023/04/06 00:10:06;;;;;;;;;;;;;;;28.62;23.39;100407.78;5097935;28;1082;-26
2023/04/06 00:12:31;;;;;;;;;;;;;;;28.63;23.32;100408.63;5098048;28;1066;-23
2023/04/06 00:14:57;;;;;;;;;;;;;;;28.52;23.53;100412.72;5098654;28;1197;-24
2023/04/06 00:17:23;;;;;;;;;;;;;;;28.63;23.33;100409.44;5098179;28;898;-25
2023/04/06 00:19:48;;;;;;;;;;;;;;;28.57;23.19;100410.25;5098508;28;1913;-23
2023/04/06 00:22:14;;;;;;;;;;;;;;;28.08;24.00;100405.59;5098246;28;1201;-29
2023/04/06 00:24:40;;;;;;;;;;;;;;;28.75;23.20;100408.84;5098299;28;1111;-25
2023/04/06 00:27:05;;;;;;;;;;;;;;;28.82;22.96;100409.72;5097735;28;1139;-24
2023/04/06 00:29:31;;;;;;;;;;;;;;;28.77;22.63;100410.34;5074915;28;1052;-28
2023/04/06 00:31:56;;;;;;;;;;;;;;;28.42;23.64;100402.28;5089858;28;1059;-26
2023/04/06 00:34:22;;;;;;;;;;;;;;;28.29;23.96;100401.16;5079792;28;1203;-23
2023/04/06 00:36:48;;;;;;;;;;;;;;;28.57;23.59;100402.13;5098338;28;1065;-27
2023/04/06 00:39:13;;;;;;;;;;;;;;;28.95;23.19;100400.81;5097706;28;1913;-25
2023/04/06 00:41:39;;;;;;;;;;;;;;;28.82;23.12;100388.91;5068579;28;1296;-25
2023/04/06 00:44:05;;;;;;;;;;;;;;;27.90;24.09;100392.56;5076696;28;1141;-25
2023/04/06 00:46:30;;;;;;;;;;;;;;;28.35;24.18;100394.13;5088595;28;1101;-23
2023/04/06 00:48:56;;;;;;;;;;;;;;;28.53;23.63;100382.75;5078990;28;1093;-26
2023/04/06 00:51:22;;;;;;;;;;;;;;;28.86;23.46;100381.22;5098150;28;1209;-26
2023/04/06 00:53:48;;;;;;;;;;;;;;;28.78;23.01;100384.13;5089653;28;1213;-26
2023/04/06 00:56:13;;;;;;;;;;;;;;;27.96;24.54;100372.03;5064505;28;1242;-24
2023/04/06 00:58:51;;;;;;;;;;;;;;;28.24;24.26;100376.56;5078373;28;1967;-24
2023/04/06 01:01:16;;;;;;;;;;;;;;;28.45;24.24;100372.09;5073140;28;1376;-27
2023/04/06 01:03:44;;;;;;;;;;;;;;;28.71;23.85;100379.50;5078653;28;1439;-22
2023/04/06 01:06:14;;;;;;;;;;;;;;;28.83;23.24;100374.31;5077124;28;1354;-23
2023/04/06 01:08:42;;;;;;;;;;;;;;;27.98;24.70;100372.66;5063109;28;1177;-24
2023/04/06 01:11:17;;;;;;;;;;;;;;;28.26;24.41;100362.84;5073912;28;1244;-25
2023/04/06 01:13:43;;;;;;;;;;;;;;;28.41;24.05;100362.75;5070832;28;1301;-24
2023/04/06 01:16:16;;;;;;;;;;;;;;;28.83;23.76;100368.06;5060939;28;1154;-23
2023/04/06 01:18:59;;;;;;;;;;;;;;;28.82;23.52;100367.25;5066624;28;2210;-24
2023/04/06 01:21:28;;;;;;;;;;;;;;;28.19;24.27;100360.94;5077310;28;1214;-24
2023/04/06 01:24:12;;;;;;;;;;;;;;;28.31;24.33;100363.91;5097183;28;1090;-23
2023/04/06 01:26:58;;;;;;;;;;;;;;;28.57;23.91;100359.69;5096928;28;1127;-22
2023/04/06 01:29:27;;;;;;;;;;;;;;;28.76;23.89;100348.28;5074006;28;1150;-23
2023/04/06 01:31:53;;;;;;;;;;;;;;;28.93;23.13;100356.84;5069877;28;1301;-25
2023/04/06 01:34:18;;;;;;;;;;;;;;;28.31;24.15;100346.84;5072250;28;1519;-26
2023/04/06 01:36:45;;;;;;;;;;;;;;;28.30;24.57;100354.13;5077922;28;1520;-24
2023/04/06 01:39:21;;;;;;;;;;;;;;;28.48;24.09;100358.16;5076625;28;1917;-27
2023/04/06 01:41:47;;;;;;;;;;;;;;;28.70;23.94;100350.78;5078412;28;1352;-24
2023/04/06 01:44:16;;;;;;;;;;;;;;;28.96;23.59;100353.75;5058690;28;1355;-23
2023/04/06 01:46:42;;;;;;;;;;;;;;;28.30;24.46;100350.56;5075566;28;1134;-25
2023/04/06 01:49:09;;;;;;;;;;;;;;;28.26;24.47;100352.03;5067163;28;1021;-26
2023/04/06 01:51:38;;;;;;;;;;;;;;;28.59;24.32;100345.94;5078406;28;1286;-24
2023/04/06 01:54:06;;;;;;;;;;;;;;;28.77;24.06;100339.97;5078536;28;1230;-25
2023/04/06 01:56:42;;;;;;;;;;;;;;;28.95;23.79;100346.66;5078501;28;1166;-28
2023/04/06 01:59:21;;;;;;;;;;;;;;;28.86;23.34;100343.31;5078459;28;1910;-29
2023/04/06 02:01:46;;;;;;;;;;;;;;;28.46;23.95;100344.84;5077916;28;1285;-26
2023/04/06 02:04:13;;;;;;;;;;;;;;;28.15;24.87;100345.28;5078387;28;1343;-22
2023/04/06 02:06:40;;;;;;;;;;;;;;;28.27;24.59;100341.00;5064624;28;1386;-25
2023/04/06 02:09:07;;;;;;;;;;;;;;;28.59;24.11;100348.66;5067774;28;1332;-25
2023/04/06 02:11:33;;;;;;;;;;;;;;;28.76;23.90;100338.28;5075207;28;1228;-26
2023/04/06 02:14:00;;;;;;;;;;;;;;;28.50;24.12;100336.31;5086660;28;1146;-25
2023/04/06 02:16:29;;;;;;;;;;;;;;;28.46;24.44;100335.91;5075759;28;1334;-25
2023/04/06 02:18:54;;;;;;;;;;;;;;;28.15;24.65;100338.03;5085033;28;1976;-29
2023/04/06 02:21:20;;;;;;;;;;;;;;;28.39;24.33;100340.47;5093497;28;1027;-25
2023/04/06 02:23:47;;;;;;;;;;;;;;;28.87;23.95;100342.28;5078406;28;1151;-22
2023/04/06 02:26:12;;;;;;;;;;;;;;;28.80;23.77;100336.00;5096193;28;1158;-26
2023/04/06 02:28:38;;;;;;;;;;;;;;;28.88;23.31;100338.50;5077983;28;1169;-27
2023/04/06 02:31:04;;;;;;;;;;;;;;;28.51;24.41;100343.41;5096135;28;1191;-24
2023/04/06 02:33:30;;;;;;;;;;;;;;;28.41;24.50;100341.09;5100070;28;1182;-27
2023/04/06 02:35:56;;;;;;;;;;;;;;;28.62;24.43;100334.72;5094455;28;1126;-24
2023/04/06 02:38:22;;;;;;;;;;;;;;;28.99;23.94;100339.84;5073850;28;1110;-25
2023/04/06 02:40:47;;;;;;;;;;;;;;;28.75;23.96;100330.34;5081404;28;1918;-24
2023/04/06 02:43:18;;;;;;;;;;;;;;;28.09;25.05;100328.03;5082162;28;1340;-23
2023/04/06 02:45:45;;;;;;;;;;;;;;;28.47;24.37;100330.31;5082097;28;1287;-24
2023/04/06 02:48:11;;;;;;;;;;;;;;;28.67;24.20;100332.22;5081939;28;1309;-24
2023/04/06 02:50:37;;;;;;;;;;;;;;;28.95;23.76;100333.13;5082163;28;1162;-25
2023/04/06 02:53:05;;;;;;;;;;;;;;;28.92;23.34;100338.94;5081430;28;1266;-26
2023/04/06 02:55:32;;;;;;;;;;;;;;;27.91;24.98;100336.66;5081975;28;1181;-26
2023/04/06 02:57:58;;;;;;;;;;;;;;;28.49;24.42;100340.91;5078530;28;1340;-26
2023/04/06 03:00:28;;;;;;;;;;;;;;;28.79;23.99;100328.94;5058698;28;1918;-25
2023/04/06 03:02:54;;;;;;;;;;;;;;;28.61;22.15;100330.34;5071365;28;1250;-22
2023/04/06 03:05:20;;;;;;;;;;;;;;;27.34;23.08;100323.94;5071276;28;1142;-22
2023/04/06 03:07:46;;;;;;;;;;;;;;;26.24;22.50;100331.03;5064997;28;1418;-22
2023/04/06 03:10:20;;;;;;;;;;;;;;;25.94;21.82;100321.09;5078179;28;1446;-22
2023/04/06 03:12:47;;;;;;;;;;;;;;;26.31;20.39;100318.47;5078039;28;1260;-21
2023/04/06 03:15:19;;;;;;;;;;;;;;;26.08;20.21;100323.97;5058394;28;1201;-21
2023/04/06 03:17:50;;;;;;;;;;;;;;;26.68;18.95;100329.31;5072358;28;1277;-22
2023/04/06 03:20:36;;;;;;;;;;;;;;;26.41;19.01;100335.22;5059986;28;1914;-25
2023/04/06 03:23:02;;;;;;;;;;;;;;;26.43;18.66;100339.56;5069834;28;1668;-23
2023/04/06 03:25:32;;;;;;;;;;;;;;;26.57;18.59;100337.88;5077915;28;1328;-22
2023/04/06 03:28:02;;;;;;;;;;;;;;;26.40;18.24;100330.88;5078417;28;1271;-24
2023/04/06 03:30:29;;;;;;;;;;;;;;;26.67;18.47;100337.59;5077879;28;1110;-23
2023/04/06 03:32:55;;;;;;;;;;;;;;;26.85;17.87;100334.47;5078814;28;1136;-27
2023/04/06 03:35:24;;;;;;;;;;;;;;;26.44;18.22;100338.56;5077539;28;1400;-23
2023/04/06 03:37:50;;;;;;;;;;;;;;;26.40;18.37;100335.41;5079039;28;1014;-22
2023/04/06 03:40:15;;;;;;;;;;;;;;;26.62;18.27;100339.00;5079286;28;1909;-21
2023/04/06 03:42:41;;;;;;;;;;;;;;;26.57;18.10;100345.97;5078414;28;1156;-22
2023/04/06 03:45:13;;;;;;;;;;;;;;;26.60;18.09;100349.16;5056573;28;1323;-23
2023/04/06 03:47:45;;;;;;;;;;;;;;;26.37;18.53;100349.28;5074031;28;1089;-23
2023/04/06 03:50:11;;;;;;;;;;;;;;;26.37;18.55;100342.03;5077677;28;1198;-25
2023/04/06 03:52:37;;;;;;;;;;;;;;;26.40;18.53;100341.66;5077511;28;1227;-23
2023/04/06 03:55:03;;;;;;;;;;;;;;;26.63;18.63;100339.81;5070093;28;886;-23
2023/04/06 03:57:28;;;;;;;;;;;;;;;25.71;19.94;100340.03;5060146;28;1139;-23
2023/04/06 03:59:56;;;;;;;;;;;;;;;26.19;19.59;100346.94;5066961;28;1907;-23
2023/04/06 04:02:25;;;;;;;;;;;;;;;27.09;18.33;100346.78;5075190;28;1298;-22
2023/04/06 04:04:50;;;;;;;;;;;;;;;26.43;18.52;100348.50;5098450;28;897;-23
2023/04/06 04:07:17;;;;;;;;;;;;;;;26.76;18.22;100347.22;5085197;28;861;-23
2023/04/06 04:09:42;;;;;;;;;;;;;;;26.70;18.24;100348.00;5071824;28;1291;-22
2023/04/06 04:12:08;;;;;;;;;;;;;;;26.75;18.01;100351.81;5082967;28;1095;-22
2023/04/06 04:14:34;;;;;;;;;;;;;;;26.86;17.79;100355.03;5078071;28;1385;-23
2023/04/06 04:17:00;;;;;;;;;;;;;;;27.08;17.43;100352.38;5080551;28;1202;-22
2023/04/06 04:19:26;;;;;;;;;;;;;;;27.00;17.55;100351.44;5084470;28;1902;-22
2023/04/06 04:21:51;;;;;;;;;;;;;;;26.98;17.44;100350.78;5080251;28;1206;-23
2023/04/06 04:24:25;;;;;;;;;;;;;;;26.95;17.73;100351.19;5080000;28;1394;-23
2023/04/06 04:26:50;;;;;;;;;;;;;;;27.24;18.03;100344.00;5077396;28;1248;-23
2023/04/06 04:29:16;;;;;;;;;;;;;;;27.59;18.41;100345.94;5076974;28;1294;-24
2023/04/06 04:31:42;;;;;;;;;;;;;;;27.57;19.22;100345.34;5079490;28;897;-27
2023/04/06 04:34:15;;;;;;;;;;;;;;;27.61;19.54;100341.19;5076900;28;1091;-23
2023/04/06 04:36:41;;;;;;;;;;;;;;;27.55;19.89;100347.38;5095832;28;1023;-24
2023/04/06 04:39:09;;;;;;;;;;;;;;;27.54;19.72;100351.13;5079474;28;1982;-26
2023/04/06 04:41:40;;;;;;;;;;;;;;;27.51;20.10;100341.53;5079973;28;1349;-22
2023/04/06 04:44:08;;;;;;;;;;;;;;;27.59;20.10;100345.13;5068277;28;1313;-25
2023/04/06 04:46:34;;;;;;;;;;;;;;;27.73;20.29;100354.19;5078141;28;1071;-23
2023/04/06 04:49:00;;;;;;;;;;;;;;;27.96;20.31;100348.53;5065311;28;1244;-27
2023/04/06 04:51:27;;;;;;;;;;;;;;;28.03;20.77;100345.03;5079388;28;1562;-25
2023/04/06 04:54:13;;;;;;;;;;;;;;;28.15;20.45;100354.25;5063320;28;1526;-25
2023/04/06 04:56:40;;;;;;;;;;;;;;;28.21;20.85;100352.63;5059735;28;1151;-24
2023/04/06 04:59:29;;;;;;;;;;;;;;;28.24;20.88;100353.03;5094509;28;1909;-22
2023/04/06 05:02:00;;;;;;;;;;;;;;;26.59;22.48;100354.72;5083886;28;1093;-22
2023/04/06 05:04:36;;;;;;;;;;;;;;;26.98;22.45;100348.09;5066727;28;1142;-25
2023/04/06 05:07:06;;;;;;;;;;;;;;;27.84;21.73;100356.34;5079037;28;1276;-23
2023/04/06 05:09:33;;;;;;;;;;;;;;;27.63;21.85;100347.25;5079320;28;1224;-24
2023/04/06 05:12:00;;;;;;;;;;;;;;;27.57;22.01;100355.28;5065799;28;1488;-23
2023/04/06 05:14:26;;;;;;;;;;;;;;;27.93;21.50;100354.34;5079459;28;1454;-22
2023/04/06 05:16:54;;;;;;;;;;;;;;;27.79;21.96;100348.03;5079231;28;1402;-23
2023/04/06 05:19:23;;;;;;;;;;;;;;;27.26;22.51;100352.75;5078853;28;1976;-24
2023/04/06 05:21:49;;;;;;;;;;;;;;;27.28;22.66;100349.03;5079302;28;1253;-24
2023/04/06 05:24:14;;;;;;;;;;;;;;;27.85;22.01;100352.63;5097302;28;1099;-27
2023/04/06 05:26:41;;;;;;;;;;;;;;;28.22;21.34;100343.47;5079008;28;1158;-23
2023/04/06 05:29:16;;;;;;;;;;;;;;;28.34;21.42;100355.41;5078962;28;1474;-24
2023/04/06 05:31:42;;;;;;;;;;;;;;;27.31;22.54;100346.75;5078916;28;1162;-24
2023/04/06 05:34:09;;;;;;;;;;;;;;;26.74;23.09;100350.13;5078980;28;1220;-23
2023/04/06 05:36:36;;;;;;;;;;;;;;;26.61;23.32;100344.59;5080708;28;1350;-28
2023/04/06 05:39:07;;;;;;;;;;;;;;;26.62;23.51;100343.56;5075436;28;1989;-25
2023/04/06 05:41:38;;;;;;;;;;;;;;;26.61;23.42;100336.50;5074977;28;1170;-24
2023/04/06 05:44:05;;;;;;;;;;;;;;;26.61;23.50;100333.81;5087016;28;883;-23
2023/04/06 05:46:32;;;;;;;;;;;;;;;26.46;24.24;100333.84;5058545;28;1261;-22
2023/04/06 05:48:59;;;;;;;;;;;;;;;26.46;23.72;100334.66;5068882;28;1318;-29
2023/04/06 05:51:28;;;;;;;;;;;;;;;26.44;23.80;100330.47;5078788;28;1301;-26
2023/04/06 05:53:54;;;;;;;;;;;;;;;26.43;23.76;100336.88;5071582;28;1139;-26
2023/04/06 05:56:20;;;;;;;;;;;;;;;28.86;21.00;100327.09;5063338;28;1189;-28
2023/04/06 05:58:46;;;;;;;;;;;;;;;27.80;21.69;100328.06;5078548;28;1211;-28
2023/04/06 06:01:15;;;;;;;;;;;;;;;26.76;23.05;100329.19;5078068;28;1906;-26
2023/04/06 06:03:45;;;;;;;;;;;;;;;28.19;21.57;100327.66;5078320;28;1242;-27
2023/04/06 06:06:10;;;;;;;;;;;;;;;28.77;20.77;100323.72;5087175;28;1074;-24
2023/04/06 06:08:48;;;;;;;;;;;;;;;28.87;20.71;100326.03;5064780;28;1279;-24
2023/04/06 06:11:16;;;;;;;;;;;;;;;29.08;20.40;100329.63;5096623;28;1113;-28
2023/04/06 06:13:41;;;;;;;;;;;;;;;29.09;20.48;100329.41;5078471;28;1233;-23
2023/04/06 06:16:08;;;;;;;;;;;;;;;29.25;20.54;100321.94;5078230;28;1439;-23
2023/04/06 06:18:40;;;;;;;;;;;;;;;29.14;20.54;100323.41;5078287;28;1330;-24
2023/04/06 06:21:07;;;;;;;;;;;;;;;28.82;20.99;100323.09;5078434;28;1973;-22
2023/04/06 06:23:33;;;;;;;;;;;;;;;28.98;20.88;100310.25;5068438;28;1297;-27
2023/04/06 06:26:00;;;;;;;;;;;;;;;28.94;21.00;100320.63;5076124;28;1249;-25
2023/04/06 06:28:27;;;;;;;;;;;;;;;29.07;20.78;100315.25;5058057;28;1281;-28
2023/04/06 06:30:53;;;;;;;;;;;;;;;29.14;20.79;100322.56;5071447;28;1122;-23
2023/04/06 06:33:21;;;;;;;;;;;;;;;29.16;20.96;100325.91;5058146;28;1169;-23
2023/04/06 06:35:50;;;;;;;;;;;;;;;29.22;20.69;100322.34;5060423;28;1107;-23
2023/04/06 06:38:16;;;;;;;;;;;;;;;29.17;20.67;100328.41;5095936;28;1265;-24
2023/04/06 06:40:41;;;;;;;;;;;;;;;29.20;20.76;100321.72;5077703;28;2004;-25
2023/04/06 06:43:07;;;;;;;;;;;;;;;29.22;20.66;100322.34;5073620;28;1253;-23
2023/04/06 06:45:48;;;;;;;;;;;;;;;29.17;21.02;100322.13;5075942;28;1288;-26
2023/04/06 06:48:14;;;;;;;;;;;;;;;29.09;21.14;100317.75;5077839;28;1344;-23
2023/04/06 06:50:39;;;;;;;;;;;;;;;29.18;20.81;100318.38;5095982;28;1309;-23
2023/04/06 06:53:05;;;;;;;;;;;;;;;28.04;22.44;100312.41;5077760;28;1297;-24
2023/04/06 06:55:31;;;;;;;;;;;;;;;27.99;22.62;100312.97;5074840;28;1159;-24
2023/04/06 06:57:57;;;;;;;;;;;;;;;28.82;21.58;100314.97;5058137;28;1135;-26
2023/04/06 07:00:22;;;;;;;;;;;;;;;28.78;21.63;100319.16;5057559;28;1961;-24
2023/04/06 07:02:49;;;;;;;;;;;;;;;28.55;21.99;100318.47;5058169;28;1247;-22
2023/04/06 07:05:15;;;;;;;;;;;;;;;28.39;22.18;100308.84;5063681;28;1094;-24
2023/04/06 07:07:41;;;;;;;;;;;;;;;28.29;22.32;100313.75;5062237;28;1887;-26
2023/04/06 07:10:07;;;;;;;;;;;;;;;27.80;22.88;100309.13;5075717;28;1206;-23
2023/04/06 07:12:34;;;;;;;;;;;;;;;27.97;22.38;100306.97;5058853;28;1158;-24
2023/04/06 07:15:00;;;;;;;;;;;;;;;29.00;21.25;100311.69;5077654;28;1134;-22
2023/04/06 07:17:26;;;;;;;;;;;;;;;29.24;21.15;100305.88;5077884;28;1225;-25
2023/04/06 07:19:52;;;;;;;;;;;;;;;29.40;20.98;100304.63;5079816;28;1902;-27
2023/04/06 07:22:17;;;;;;;;;;;;;;;29.57;20.65;100314.00;5093266;28;1217;-24
2023/04/06 07:24:43;;;;;;;;;;;;;;;28.94;21.60;100320.63;5081191;28;1246;-24
2023/04/06 07:27:08;;;;;;;;;;;;;;;28.83;21.92;100308.50;5100030;28;1096;-22
2023/04/06 07:29:34;;;;;;;;;;;;;;;28.91;21.83;100310.22;5099733;28;1095;-24
2023/04/06 07:32:00;;;;;;;;;;;;;;;29.12;21.57;100306.50;5076028;28;1349;-26
2023/04/06 07:34:26;;;;;;;;;;;;;;;29.30;21.32;100305.03;5065100;28;1340;-25
2023/04/06 07:36:53;;;;;;;;;;;;;;;29.29;20.95;100297.97;5062261;28;1454;-25
2023/04/06 07:39:19;;;;;;;;;;;;;;;29.39;21.00;100302.97;5083604;28;1905;-24
2023/04/06 07:41:45;;;;;;;;;;;;;;;29.31;21.18;100298.59;5074574;28;1260;-23
2023/04/06 07:44:11;;;;;;;;;;;;;;;28.43;22.19;100303.84;5068544;28;1362;-24
2023/04/06 07:46:37;;;;;;;;;;;;;;;28.11;22.32;100302.44;5072517;28;1106;-26
2023/04/06 07:49:04;;;;;;;;;;;;;;;29.26;21.28;100304.63;5066968;28;1378;-24
2023/04/06 07:51:32;;;;;;;;;;;;;;;29.24;21.25;100293.19;5080994;28;1417;-24
2023/04/06 07:53:58;;;;;;;;;;;;;;;29.17;21.19;100295.88;5073482;28;1260;-23
2023/04/06 07:56:24;;;;;;;;;;;;;;;29.05;21.45;100295.66;5089854;28;1325;-26
2023/04/06 07:58:50;;;;;;;;;;;;;;;28.89;21.63;100287.91;5098524;28;1257;-22
2023/04/06 08:01:16;;;;;;;;;;;;;;;27.96;22.28;100296.34;5098528;28;1996;-24
2023/04/06 08:03:41;;;;;;;;;;;;;;;27.98;22.63;100286.16;5089538;28;1336;-26
2023/04/06 08:06:07;;;;;;;;;;;;;;;29.31;21.05;100298.59;5094152;28;1242;-24
2023/04/06 08:08:32;;;;;;;;;;;;;;;29.11;21.46;100299.44;5089697;28;1360;-26
2023/04/06 08:10:58;;;;;;;;;;;;;;;28.90;21.80;100295.84;5080491;28;1452;-25
2023/04/06 08:13:24;;;;;;;;;;;;;;;28.83;21.68;100300.41;5091018;28;1154;-23
2023/04/06 08:15:49;;;;;;;;;;;;;;;28.92;21.52;100304.59;5088276;28;1273;-24
2023/04/06 08:18:15;;;;;;;;;;;;;;;28.32;22.15;100294.41;5092031;28;1046;-24
2023/04/06 08:20:41;;;;;;;;;;;;;;;28.20;22.75;100294.16;5089341;28;1971;-30
2023/04/06 08:23:09;;;;;;;;;;;;;;;29.43;21.47;100288.78;5079010;28;1121;-22
2023/04/06 08:25:35;;;;;;;;;;;;;;;30.17;20.49;100301.34;5079327;28;1118;-23
2023/04/06 08:28:01;;;;;;;;;;;;;;;28.68;22.23;100295.16;5078627;28;1269;-24
2023/04/06 08:30:27;;;;;;;;;;;;;;;28.20;22.39;100295.00;5078294;28;1246;-25
2023/04/06 08:32:53;;;;;;;;;;;;;;;29.57;21.34;100305.88;5089873;28;1179;-24
2023/04/06 08:35:18;;;;;;;;;;;;;;;29.91;20.87;100296.88;5085247;28;1150;-24
2023/04/06 08:37:44;;;;;;;;;;;;;;;30.10;20.58;100295.13;5097949;28;1273;-23
2023/04/06 08:40:10;;;;;;;;;;;;;;;30.03;20.54;100300.56;5097882;28;1969;-28
2023/04/06 08:42:39;;;;;;;;;;;;;;;29.14;21.43;100292.75;5098012;28;1027;-23
2023/04/06 08:45:05;;;;;;;;;;;;;;;28.03;23.01;100285.56;5080237;28;885;-27
2023/04/06 08:47:30;;;;;;;;;;;;;;;28.13;22.72;100293.31;5079907;28;1039;-24
2023/04/06 08:49:56;;;;;;;;;;;;;;;29.49;21.31;100295.25;5077482;28;1107;-24
2023/04/06 08:52:22;;;;;;;;;;;;;;;29.91;20.69;100302.28;5085104;28;1102;-28
2023/04/06 08:54:47;;;;;;;;;;;;;;;29.80;20.87;100293.75;5078267;28;1098;-24
2023/04/06 08:57:13;;;;;;;;;;;;;;;29.50;21.11;100294.19;5093024;28;1154;-23
2023/04/06 08:59:38;;;;;;;;;;;;;;;29.27;21.34;100289.22;5084593;28;1964;-25
2023/04/06 09:02:05;;;;;;;;;;;;;;;29.14;21.62;100285.47;5077432;28;1210;-25
2023/04/06 09:04:32;;;;;;;;;;;;;;;29.06;21.78;100294.63;5076781;28;1194;-26
2023/04/06 09:06:57;;;;;;;;;;;;;;;28.36;22.47;100293.84;5076880;28;1246;-23
2023/04/06 09:09:24;;;;;;;;;;;;;;;28.42;22.56;100291.34;5073229;28;1736;-26
2023/04/06 09:11:51;;;;;;;;;;;;;;;29.15;21.50;100295.25;5082143;28;1222;-24
2023/04/06 09:14:16;;;;;;;;;;;;;;;28.90;21.91;100289.56;5092703;28;1225;-24
2023/04/06 09:16:43;;;;;;;;;;;;;;;28.91;21.97;100294.78;5097323;28;1178;-23
2023/04/06 09:19:09;;;;;;;;;;;;;;;28.96;21.93;100294.19;5097110;28;1913;-24
2023/04/06 09:21:35;;;;;;;;;;;;;;;29.18;21.53;100294.00;5091900;28;1079;-23
2023/04/06 09:24:01;;;;;;;;;;;;;;;29.26;21.12;100301.09;5079558;28;1115;-24
2023/04/06 09:26:27;;;;;;;;;;;;;;;29.30;21.27;100302.34;5084139;28;905;-23
2023/04/06 09:28:53;;;;;;;;;;;;;;;29.33;21.03;100308.19;5091056;28;1050;-24
2023/04/06 09:31:23;;;;;;;;;;;;;;;29.42;21.15;100307.97;5090839;28;1180;-25
2023/04/06 09:33:48;;;;;;;;;;;;;;;29.53;21.01;100303.81;5092647;28;960;-23
2023/04/06 09:36:15;;;;;;;;;;;;;;;29.68;20.91;100300.84;5095737;28;1004;-25
2023/04/06 09:38:54;;;;;;;;;;;;;;;29.53;21.31;100296.47;5084864;28;1091;-24
2023/04/06 09:41:24;;;;;;;;;;;;;;;29.53;21.39;100298.38;5095186;28;1910;-24
2023/04/06 09:43:50;;;;;;;;;;;;;;;29.50;21.32;100296.06;5096878;28;1308;-26
2023/04/06 09:46:17;;;;;;;;;;;;;;;28.41;22.57;100297.81;5086478;28;923;-24
2023/04/06 09:48:42;;;;;;;;;;;;;;;28.09;23.08;100288.28;5080776;28;1205;-27
2023/04/06 09:51:08;;;;;;;;;;;;;;;29.71;21.03;100289.63;5078906;28;1127;-26
2023/04/06 09:53:34;;;;;;;;;;;;;;;29.41;21.22;100293.56;5075670;28;1313;-23
2023/04/06 09:56:01;;;;;;;;;;;;;;;29.31;21.42;100291.28;5091187;28;1313;-23
2023/04/06 09:58:26;;;;;;;;;;;;;;;29.14;21.74;100295.47;5059297;28;1115;-23
2023/04/06 10:00:56;;;;;;;;;;;;;;;29.28;21.31;100302.53;5075880;28;1901;-25
2023/04/06 10:03:27;;;;;;;;;;;;;;;29.40;20.83;100294.63;5075283;28;1282;-27
2023/04/06 10:05:59;;;;;;;;;;;;;;;29.49;20.62;100291.69;5061410;28;1226;-23
2023/04/06 10:08:27;;;;;;;;;;;;;;;29.53;21.07;100282.94;5059403;28;1309;-23
2023/04/06 10:10:53;;;;;;;;;;;;;;;29.72;20.86;100280.44;5076216;28;1214;-25
2023/04/06 10:13:18;;;;;;;;;;;;;;;29.62;20.89;100291.72;5093437;28;1134;-23
2023/04/06 10:15:44;;;;;;;;;;;;;;;29.57;21.01;100289.59;5065755;28;1310;-23
2023/04/06 10:18:10;;;;;;;;;;;;;;;29.46;21.07;100291.06;5078232;28;1249;-23
2023/04/06 10:20:37;;;;;;;;;;;;;;;28.53;22.21;100292.66;5095627;28;1978;-21
2023/04/06 10:23:09;;;;;;;;;;;;;;;28.83;21.71;100292.28;5076701;28;1225;-21
2023/04/06 10:25:35;;;;;;;;;;;;;;;29.68;21.05;100285.44;5074780;28;1138;-24
2023/04/06 10:28:07;;;;;;;;;;;;;;;29.46;21.43;100288.34;5076128;28;1213;-22
2023/04/06 10:30:41;;;;;;;;;;;;;;;29.31;21.41;100293.19;5075869;28;1228;-24
2023/04/06 10:33:13;;;;;;;;;;;;;;;28.93;21.43;100291.88;5079025;28;1177;-23
2023/04/06 10:35:39;;;;;;;;;;;;;;;28.96;21.37;100295.00;5075695;28;1217;-27
2023/04/06 10:38:05;;;;;;;;;;;;;;;28.52;22.14;100293.66;5094022;28;1050;-23
2023/04/06 10:40:31;;;;;;;;;;;;;;;28.77;21.35;100295.81;5096205;28;1979;-26
2023/04/06 10:43:06;;;;;;;;;;;;;;;29.48;20.60;100292.75;5095776;28;1066;-27
2023/04/06 10:45:32;;;;;;;;;;;;;;;30.13;20.12;100288.44;5095493;28;1030;-25
2023/04/06 10:47:58;;;;;;;;;;;;;;;28.51;21.71;100283.91;5095147;28;1122;-24
2023/04/06 10:50:23;;;;;;;;;;;;;;;27.90;22.65;100286.31;5095546;28;1346;-24
2023/04/06 10:53:02;;;;;;;;;;;;;;;29.16;20.79;100282.56;5082529;28;1309;-26
2023/04/06 10:55:27;;;;;;;;;;;;;;;29.65;20.26;100282.31;5086793;28;1191;-24
2023/04/06 10:57:53;;;;;;;;;;;;;;;30.09;19.83;100279.91;5072424;28;1285;-25
2023/04/06 11:00:19;;;;;;;;;;;;;;;29.88;19.95;100286.44;5087205;28;1913;-24
2023/04/06 11:02:45;;;;;;;;;;;;;;;29.18;21.05;100284.00;5096602;28;1261;-24
2023/04/06 11:05:11;;;;;;;;;;;;;;;28.39;21.66;100278.25;5061516;28;1210;-24
2023/04/06 11:07:37;;;;;;;;;;;;;;;28.40;21.97;100275.31;5093119;28;1086;-25
2023/04/06 11:10:03;;;;;;;;;;;;;;;28.99;21.30;100274.00;5085172;28;986;-25
2023/04/06 11:12:30;;;;;;;;;;;;;;;29.84;20.48;100272.47;5092598;28;1066;-23
2023/04/06 11:15:05;;;;;;;;;;;;;;;30.17;19.78;100276.09;5086271;28;1081;-23
2023/04/06 11:17:35;;;;;;;;;;;;;;;30.25;20.02;100285.91;5099397;28;1136;-24
2023/04/06 11:20:02;;;;;;;;;;;;;;;29.31;20.89;100279.63;5098384;28;1909;-27
2023/04/06 11:22:28;;;;;;;;;;;;;;;29.02;21.21;100269.00;5087794;28;1261;-25
2023/04/06 11:25:04;;;;;;;;;;;;;;;27.99;22.67;100272.41;5069844;28;1300;-25
2023/04/06 11:27:31;;;;;;;;;;;;;;;28.95;21.52;100268.13;5098814;28;1146;-26
2023/04/06 11:29:58;;;;;;;;;;;;;;;29.79;20.37;100278.53;5098932;28;1218;-24
2023/04/06 11:32:24;;;;;;;;;;;;;;;30.30;19.81;100275.22;5080896;28;1175;-24
2023/04/06 11:34:49;;;;;;;;;;;;;;;28.27;22.34;100269.84;5083038;28;1269;-27
2023/04/06 11:37:15;;;;;;;;;;;;;;;27.82;22.90;100258.44;5078882;28;1313;-25
2023/04/06 11:39:48;;;;;;;;;;;;;;;28.93;21.66;100259.38;5077997;28;1977;-29
2023/04/06 11:42:20;;;;;;;;;;;;;;;28.91;21.45;100261.47;5078802;28;1234;-23
2023/04/06 11:44:46;;;;;;;;;;;;;;;28.82;21.79;100252.72;5068715;28;1052;-26
2023/04/06 11:47:12;;;;;;;;;;;;;;;28.81;21.90;100259.19;5084891;28;1086;-29
2023/04/06 11:49:38;;;;;;;;;;;;;;;28.77;21.70;100253.34;5085981;28;1059;-25
2023/04/06 11:52:13;;;;;;;;;;;;;;;28.02;22.31;100249.56;5099021;28;1127;-25
2023/04/06 11:54:39;;;;;;;;;;;;;;;27.96;22.50;100248.50;5098471;28;1170;-25
2023/04/06 11:57:05;;;;;;;;;;;;;;;29.52;20.77;100245.22;5098467;28;1035;-27
2023/04/06 11:59:31;;;;;;;;;;;;;;;29.98;20.29;100248.03;5089899;28;1983;-23
2023/04/06 12:01:59;;;;;;;;;;;;;;;29.80;20.38;100247.66;5093971;28;1130;-25
2023/04/06 12:04:25;;;;;;;;;;;;;;;29.48;20.88;100239.38;5089226;28;1038;-24
2023/04/06 12:06:50;;;;;;;;;;;;;;;29.28;20.91;100239.44;5077961;28;1267;-27
2023/04/06 12:09:17;;;;;;;;;;;;;;;29.18;21.15;100237.13;5086951;28;1289;-25
2023/04/06 12:11:43;;;;;;;;;;;;;;;29.12;21.42;100237.97;5097894;28;1226;-25
2023/04/06 12:14:08;;;;;;;;;;;;;;;28.14;22.58;100238.19;5085156;28;1289;-24
2023/04/06 12:16:34;;;;;;;;;;;;;;;28.39;22.42;100240.38;5078190;28;1231;-24
2023/04/06 12:19:01;;;;;;;;;;;;;;;28.74;21.93;100234.81;5084954;28;1062;-25
2023/04/06 12:21:27;;;;;;;;;;;;;;;28.87;21.42;100243.97;5097526;28;1902;-23
2023/04/06 12:23:52;;;;;;;;;;;;;;;28.90;20.98;100244.41;5077952;28;1293;-23
2023/04/06 12:26:18;;;;;;;;;;;;;;;29.07;21.15;100246.72;5087295;28;1007;-25
2023/04/06 12:28:44;;;;;;;;;;;;;;;29.31;21.05;100242.53;5098148;28;1134;-25
2023/04/06 12:31:16;;;;;;;;;;;;;;;29.32;21.13;100246.06;5098348;28;1216;-26
2023/04/06 12:33:42;;;;;;;;;;;;;;;29.23;21.06;100241.94;5097713;28;1209;-26
2023/04/06 12:36:20;;;;;;;;;;;;;;;29.18;21.37;100242.53;5098844;28;1134;-24
2023/04/06 12:38:47;;;;;;;;;;;;;;;28.34;22.31;100239.09;5097744;28;1074;-25
2023/04/06 12:41:12;;;;;;;;;;;;;;;28.99;21.64;100244.22;5097602;28;2031;-26
2023/04/06 12:43:41;;;;;;;;;;;;;;;29.15;21.44;100245.66;5097350;28;1122;-27
2023/04/06 12:46:07;;;;;;;;;;;;;;;29.16;21.39;100244.63;5097486;28;1027;-24
2023/04/06 12:48:33;;;;;;;;;;;;;;;28.57;21.54;100235.22;5079082;28;1091;-21